<?xml version="1.0" encoding="UTF-8" standalone="no" ?>
<gpx xmlns="http://www.topografix.com/GPX/1/1" xmlns:xsi="http://www.w3.org/2001/XMLSchema-instance" xsi:schemaLocation="http://www.topografix.com/GPX/1/1 http://www.topografix.com/GPX/1/1/gpx.xsd" version="1.1" creator="VisuGPX - https://www.visugpx.com">
  <metadata>
    <name>Ribiers Eourres </name>
    <desc><![CDATA[Parking au plan d'eau de Ribiers, grosse journée et passage étroit dans la dernière partie entre le col de St Pierre et le gîte des Damias. Voir le site de l'asso des Cavaliers Randonneurs Alpins]]></desc>
  </metadata>
  <trk>
    <name><![CDATA[OR-6793968--Ribiers:J 1]]></name>
    <trkseg>
      <trkpt lat="44.22106" lon="5.86248">
        <ele>515</ele>
        <time>2016-11-21T12:00:27Z</time>
      </trkpt>
      <trkpt lat="44.22095" lon="5.86197">
        <ele>516</ele>
        <time>2016-11-21T12:02:27Z</time>
      </trkpt>
      <trkpt lat="44.2226" lon="5.86105">
        <ele>516</ele>
        <time>2016-11-21T12:04:27Z</time>
      </trkpt>
      <trkpt lat="44.22295" lon="5.85911">
        <ele>520</ele>
        <time>2016-11-21T12:06:27Z</time>
      </trkpt>
      <trkpt lat="44.22306" lon="5.85854">
        <ele>521</ele>
        <time>2016-11-21T12:08:27Z</time>
      </trkpt>
      <trkpt lat="44.22432" lon="5.85824">
        <ele>525</ele>
        <time>2016-11-21T12:10:27Z</time>
      </trkpt>
      <trkpt lat="44.22466" lon="5.85725">
        <ele>531</ele>
        <time>2016-11-21T12:12:27Z</time>
      </trkpt>
      <trkpt lat="44.22452" lon="5.85517">
        <ele>540</ele>
        <time>2016-11-21T12:14:27Z</time>
      </trkpt>
      <trkpt lat="44.22473" lon="5.85384">
        <ele>545</ele>
        <time>2016-11-21T12:16:27Z</time>
      </trkpt>
      <trkpt lat="44.22466" lon="5.85324">
        <ele>546</ele>
        <time>2016-11-21T12:18:27Z</time>
      </trkpt>
      <trkpt lat="44.22479" lon="5.85224">
        <ele>550</ele>
        <time>2016-11-21T12:20:27Z</time>
      </trkpt>
      <trkpt lat="44.22477" lon="5.85153">
        <ele>551</ele>
        <time>2016-11-21T12:22:27Z</time>
      </trkpt>
      <trkpt lat="44.22453" lon="5.84968">
        <ele>557</ele>
        <time>2016-11-21T12:24:27Z</time>
      </trkpt>
      <trkpt lat="44.22427" lon="5.84739">
        <ele>568</ele>
        <time>2016-11-21T12:26:27Z</time>
      </trkpt>
      <trkpt lat="44.22417" lon="5.84603">
        <ele>575</ele>
        <time>2016-11-21T12:28:27Z</time>
      </trkpt>
      <trkpt lat="44.22365" lon="5.84298">
        <ele>587</ele>
        <time>2016-11-21T12:30:27Z</time>
      </trkpt>
      <trkpt lat="44.22307" lon="5.84073">
        <ele>599</ele>
        <time>2016-11-21T12:32:27Z</time>
      </trkpt>
      <trkpt lat="44.22305" lon="5.84017">
        <ele>603</ele>
        <time>2016-11-21T12:34:27Z</time>
      </trkpt>
      <trkpt lat="44.22452" lon="5.83668">
        <ele>605</ele>
        <time>2016-11-21T12:36:27Z</time>
      </trkpt>
      <trkpt lat="44.22381" lon="5.83479">
        <ele>605</ele>
        <time>2016-11-21T12:38:27Z</time>
      </trkpt>
      <trkpt lat="44.22268" lon="5.83197">
        <ele>598</ele>
        <time>2016-11-21T12:40:27Z</time>
      </trkpt>
      <trkpt lat="44.22236" lon="5.83073">
        <ele>601</ele>
        <time>2016-11-21T12:42:27Z</time>
      </trkpt>
      <trkpt lat="44.22331" lon="5.8289">
        <ele>616</ele>
        <time>2016-11-21T12:44:27Z</time>
      </trkpt>
      <trkpt lat="44.22389" lon="5.82822">
        <ele>632</ele>
        <time>2016-11-21T12:46:27Z</time>
      </trkpt>
      <trkpt lat="44.22402" lon="5.82903">
        <ele>628</ele>
        <time>2016-11-21T12:48:27Z</time>
      </trkpt>
      <trkpt lat="44.22459" lon="5.82937">
        <ele>634</ele>
        <time>2016-11-21T12:50:27Z</time>
      </trkpt>
      <trkpt lat="44.22498" lon="5.8295">
        <ele>638</ele>
        <time>2016-11-21T12:52:27Z</time>
      </trkpt>
      <trkpt lat="44.22545" lon="5.82914">
        <ele>649</ele>
        <time>2016-11-21T12:54:27Z</time>
      </trkpt>
      <trkpt lat="44.22606" lon="5.82902">
        <ele>659</ele>
        <time>2016-11-21T12:56:27Z</time>
      </trkpt>
      <trkpt lat="44.22631" lon="5.82901">
        <ele>664</ele>
        <time>2016-11-21T12:58:27Z</time>
      </trkpt>
      <trkpt lat="44.22665" lon="5.82945">
        <ele>667</ele>
        <time>2016-11-21T13:00:27Z</time>
      </trkpt>
      <trkpt lat="44.22673" lon="5.83035">
        <ele>665</ele>
        <time>2016-11-21T13:02:27Z</time>
      </trkpt>
      <trkpt lat="44.22713" lon="5.82963">
        <ele>675</ele>
        <time>2016-11-21T13:04:27Z</time>
      </trkpt>
      <trkpt lat="44.22732" lon="5.82895">
        <ele>684</ele>
        <time>2016-11-21T13:06:27Z</time>
      </trkpt>
      <trkpt lat="44.22703" lon="5.82813">
        <ele>688</ele>
        <time>2016-11-21T13:08:27Z</time>
      </trkpt>
      <trkpt lat="44.2267" lon="5.82686">
        <ele>700</ele>
        <time>2016-11-21T13:10:27Z</time>
      </trkpt>
      <trkpt lat="44.22616" lon="5.8265">
        <ele>693</ele>
        <time>2016-11-21T13:12:27Z</time>
      </trkpt>
      <trkpt lat="44.22623" lon="5.82532">
        <ele>706</ele>
        <time>2016-11-21T13:14:27Z</time>
      </trkpt>
      <trkpt lat="44.22691" lon="5.82425">
        <ele>721</ele>
        <time>2016-11-21T13:16:27Z</time>
      </trkpt>
      <trkpt lat="44.22702" lon="5.82322">
        <ele>729</ele>
        <time>2016-11-21T13:18:27Z</time>
      </trkpt>
      <trkpt lat="44.22654" lon="5.82322">
        <ele>721</ele>
        <time>2016-11-21T13:20:27Z</time>
      </trkpt>
      <trkpt lat="44.22648" lon="5.82238">
        <ele>732</ele>
        <time>2016-11-21T13:22:27Z</time>
      </trkpt>
      <trkpt lat="44.22605" lon="5.82195">
        <ele>738</ele>
        <time>2016-11-21T13:24:27Z</time>
      </trkpt>
      <trkpt lat="44.22567" lon="5.82191">
        <ele>737</ele>
        <time>2016-11-21T13:26:27Z</time>
      </trkpt>
      <trkpt lat="44.22545" lon="5.82137">
        <ele>746</ele>
        <time>2016-11-21T13:28:27Z</time>
      </trkpt>
      <trkpt lat="44.22502" lon="5.82126">
        <ele>749</ele>
        <time>2016-11-21T13:30:27Z</time>
      </trkpt>
      <trkpt lat="44.22427" lon="5.82041">
        <ele>755</ele>
        <time>2016-11-21T13:32:27Z</time>
      </trkpt>
      <trkpt lat="44.22427" lon="5.81912">
        <ele>764</ele>
        <time>2016-11-21T13:34:27Z</time>
      </trkpt>
      <trkpt lat="44.2243" lon="5.81824">
        <ele>770</ele>
        <time>2016-11-21T13:36:27Z</time>
      </trkpt>
      <trkpt lat="44.22456" lon="5.81659">
        <ele>790</ele>
        <time>2016-11-21T13:38:27Z</time>
      </trkpt>
      <trkpt lat="44.22396" lon="5.81474">
        <ele>795</ele>
        <time>2016-11-21T13:40:27Z</time>
      </trkpt>
      <trkpt lat="44.22425" lon="5.81354">
        <ele>810</ele>
        <time>2016-11-21T13:42:27Z</time>
      </trkpt>
      <trkpt lat="44.2243" lon="5.81159">
        <ele>812</ele>
        <time>2016-11-21T13:44:27Z</time>
      </trkpt>
      <trkpt lat="44.22477" lon="5.81011">
        <ele>833</ele>
        <time>2016-11-21T13:46:27Z</time>
      </trkpt>
      <trkpt lat="44.22485" lon="5.80899">
        <ele>845</ele>
        <time>2016-11-21T13:48:27Z</time>
      </trkpt>
      <trkpt lat="44.2255" lon="5.8109">
        <ele>855</ele>
        <time>2016-11-21T13:50:27Z</time>
      </trkpt>
      <trkpt lat="44.22574" lon="5.81131">
        <ele>860</ele>
        <time>2016-11-21T13:52:27Z</time>
      </trkpt>
      <trkpt lat="44.22642" lon="5.81152">
        <ele>873</ele>
        <time>2016-11-21T13:54:27Z</time>
      </trkpt>
      <trkpt lat="44.22676" lon="5.81234">
        <ele>875</ele>
        <time>2016-11-21T13:56:27Z</time>
      </trkpt>
      <trkpt lat="44.22783" lon="5.81358">
        <ele>886</ele>
        <time>2016-11-21T13:58:27Z</time>
      </trkpt>
      <trkpt lat="44.22794" lon="5.81202">
        <ele>908</ele>
        <time>2016-11-21T14:00:27Z</time>
      </trkpt>
      <trkpt lat="44.2283" lon="5.81148">
        <ele>923</ele>
        <time>2016-11-21T14:02:27Z</time>
      </trkpt>
      <trkpt lat="44.22837" lon="5.81051">
        <ele>937</ele>
        <time>2016-11-21T14:04:27Z</time>
      </trkpt>
      <trkpt lat="44.22968" lon="5.81036">
        <ele>975</ele>
        <time>2016-11-21T14:06:27Z</time>
      </trkpt>
      <trkpt lat="44.22945" lon="5.80948">
        <ele>988</ele>
        <time>2016-11-21T14:08:27Z</time>
      </trkpt>
      <trkpt lat="44.22882" lon="5.80837">
        <ele>993</ele>
        <time>2016-11-21T14:10:27Z</time>
      </trkpt>
      <trkpt lat="44.22974" lon="5.80852">
        <ele>1018</ele>
        <time>2016-11-21T14:12:27Z</time>
      </trkpt>
      <trkpt lat="44.22954" lon="5.80807">
        <ele>1020</ele>
        <time>2016-11-21T14:14:27Z</time>
      </trkpt>
      <trkpt lat="44.22886" lon="5.80702">
        <ele>1020</ele>
        <time>2016-11-21T14:16:27Z</time>
      </trkpt>
      <trkpt lat="44.2288" lon="5.80451">
        <ele>1032</ele>
        <time>2016-11-21T14:18:27Z</time>
      </trkpt>
      <trkpt lat="44.22922" lon="5.80418">
        <ele>1036</ele>
        <time>2016-11-21T14:20:27Z</time>
      </trkpt>
      <trkpt lat="44.22972" lon="5.80388">
        <ele>1041</ele>
        <time>2016-11-21T14:22:27Z</time>
      </trkpt>
      <trkpt lat="44.22996" lon="5.80315">
        <ele>1047</ele>
        <time>2016-11-21T14:24:27Z</time>
      </trkpt>
      <trkpt lat="44.22977" lon="5.80232">
        <ele>1047</ele>
        <time>2016-11-21T14:26:27Z</time>
      </trkpt>
      <trkpt lat="44.23046" lon="5.80255">
        <ele>1061</ele>
        <time>2016-11-21T14:28:27Z</time>
      </trkpt>
      <trkpt lat="44.23102" lon="5.80285">
        <ele>1070</ele>
        <time>2016-11-21T14:30:27Z</time>
      </trkpt>
      <trkpt lat="44.23165" lon="5.80294">
        <ele>1083</ele>
        <time>2016-11-21T14:32:27Z</time>
      </trkpt>
      <trkpt lat="44.2326" lon="5.8044">
        <ele>1100</ele>
        <time>2016-11-21T14:34:27Z</time>
      </trkpt>
      <trkpt lat="44.23274" lon="5.80493">
        <ele>1102</ele>
        <time>2016-11-21T14:36:27Z</time>
      </trkpt>
      <trkpt lat="44.23302" lon="5.80386">
        <ele>1118</ele>
        <time>2016-11-21T14:38:27Z</time>
      </trkpt>
      <trkpt lat="44.23318" lon="5.80253">
        <ele>1145</ele>
        <time>2016-11-21T14:40:27Z</time>
      </trkpt>
      <trkpt lat="44.23269" lon="5.80051">
        <ele>1178</ele>
        <time>2016-11-21T14:42:27Z</time>
      </trkpt>
      <trkpt lat="44.23377" lon="5.8015">
        <ele>1197</ele>
        <time>2016-11-21T14:44:27Z</time>
      </trkpt>
      <trkpt lat="44.23475" lon="5.80199">
        <ele>1210</ele>
        <time>2016-11-21T14:46:27Z</time>
      </trkpt>
      <trkpt lat="44.23556" lon="5.80157">
        <ele>1225</ele>
        <time>2016-11-21T14:48:27Z</time>
      </trkpt>
      <trkpt lat="44.23615" lon="5.8014">
        <ele>1211</ele>
        <time>2016-11-21T14:50:27Z</time>
      </trkpt>
      <trkpt lat="44.23611" lon="5.80093">
        <ele>1227</ele>
        <time>2016-11-21T14:52:27Z</time>
      </trkpt>
      <trkpt lat="44.23621" lon="5.80031">
        <ele>1238</ele>
        <time>2016-11-21T14:54:27Z</time>
      </trkpt>
      <trkpt lat="44.23591" lon="5.80007">
        <ele>1264</ele>
        <time>2016-11-21T14:56:27Z</time>
      </trkpt>
      <trkpt lat="44.23562" lon="5.80004">
        <ele>1271</ele>
        <time>2016-11-21T14:58:27Z</time>
      </trkpt>
      <trkpt lat="44.23583" lon="5.79978">
        <ele>1279</ele>
        <time>2016-11-21T15:00:27Z</time>
      </trkpt>
      <trkpt lat="44.23611" lon="5.79897">
        <ele>1287</ele>
        <time>2016-11-21T15:02:27Z</time>
      </trkpt>
      <trkpt lat="44.23629" lon="5.79895">
        <ele>1277</ele>
        <time>2016-11-21T15:04:27Z</time>
      </trkpt>
      <trkpt lat="44.23639" lon="5.79881">
        <ele>1276</ele>
        <time>2016-11-21T15:06:27Z</time>
      </trkpt>
      <trkpt lat="44.23648" lon="5.79775">
        <ele>1302</ele>
        <time>2016-11-21T15:08:27Z</time>
      </trkpt>
      <trkpt lat="44.23651" lon="5.79505">
        <ele>1349</ele>
        <time>2016-11-21T15:10:27Z</time>
      </trkpt>
      <trkpt lat="44.23725" lon="5.79239">
        <ele>1382</ele>
        <time>2016-11-21T15:12:27Z</time>
      </trkpt>
      <trkpt lat="44.23808" lon="5.79097">
        <ele>1389</ele>
        <time>2016-11-21T15:14:27Z</time>
      </trkpt>
      <trkpt lat="44.23864" lon="5.79093">
        <ele>1383</ele>
        <time>2016-11-21T15:16:27Z</time>
      </trkpt>
      <trkpt lat="44.23891" lon="5.78939">
        <ele>1377</ele>
        <time>2016-11-21T15:18:27Z</time>
      </trkpt>
      <trkpt lat="44.23833" lon="5.78797">
        <ele>1376</ele>
        <time>2016-11-21T15:20:27Z</time>
      </trkpt>
      <trkpt lat="44.23762" lon="5.78634">
        <ele>1363</ele>
        <time>2016-11-21T15:22:27Z</time>
      </trkpt>
      <trkpt lat="44.23728" lon="5.78514">
        <ele>1348</ele>
        <time>2016-11-21T15:24:27Z</time>
      </trkpt>
      <trkpt lat="44.23633" lon="5.78351">
        <ele>1355</ele>
        <time>2016-11-21T15:26:27Z</time>
      </trkpt>
      <trkpt lat="44.23565" lon="5.78153">
        <ele>1370</ele>
        <time>2016-11-21T15:28:27Z</time>
      </trkpt>
      <trkpt lat="44.23528" lon="5.77956">
        <ele>1379</ele>
        <time>2016-11-21T15:30:27Z</time>
      </trkpt>
      <trkpt lat="44.23519" lon="5.77694">
        <ele>1368</ele>
        <time>2016-11-21T15:32:27Z</time>
      </trkpt>
      <trkpt lat="44.23516" lon="5.77415">
        <ele>1360</ele>
        <time>2016-11-21T15:34:27Z</time>
      </trkpt>
      <trkpt lat="44.23492" lon="5.77153">
        <ele>1348</ele>
        <time>2016-11-21T15:36:27Z</time>
      </trkpt>
      <trkpt lat="44.23495" lon="5.77003">
        <ele>1324</ele>
        <time>2016-11-21T15:38:27Z</time>
      </trkpt>
      <trkpt lat="44.23532" lon="5.76942">
        <ele>1307</ele>
        <time>2016-11-21T15:40:27Z</time>
      </trkpt>
      <trkpt lat="44.23575" lon="5.76861">
        <ele>1289</ele>
        <time>2016-11-21T15:42:27Z</time>
      </trkpt>
      <trkpt lat="44.23624" lon="5.76805">
        <ele>1282</ele>
        <time>2016-11-21T15:44:27Z</time>
      </trkpt>
      <trkpt lat="44.23621" lon="5.76715">
        <ele>1282</ele>
        <time>2016-11-21T15:46:27Z</time>
      </trkpt>
      <trkpt lat="44.23538" lon="5.76659">
        <ele>1291</ele>
        <time>2016-11-21T15:48:27Z</time>
      </trkpt>
      <trkpt lat="44.23493" lon="5.76587">
        <ele>1297</ele>
        <time>2016-11-21T15:50:27Z</time>
      </trkpt>
      <trkpt lat="44.2345" lon="5.76495">
        <ele>1303</ele>
        <time>2016-11-21T15:52:27Z</time>
      </trkpt>
      <trkpt lat="44.23398" lon="5.76388">
        <ele>1311</ele>
        <time>2016-11-21T15:54:27Z</time>
      </trkpt>
      <trkpt lat="44.23381" lon="5.76326">
        <ele>1318</ele>
        <time>2016-11-21T15:56:27Z</time>
      </trkpt>
      <trkpt lat="44.23332" lon="5.76267">
        <ele>1320</ele>
        <time>2016-11-21T15:58:27Z</time>
      </trkpt>
      <trkpt lat="44.23279" lon="5.76181">
        <ele>1330</ele>
        <time>2016-11-21T16:00:27Z</time>
      </trkpt>
      <trkpt lat="44.23206" lon="5.76065">
        <ele>1345</ele>
        <time>2016-11-21T16:02:27Z</time>
      </trkpt>
      <trkpt lat="44.23189" lon="5.76023">
        <ele>1349</ele>
        <time>2016-11-21T16:04:27Z</time>
      </trkpt>
      <trkpt lat="44.23153" lon="5.75996">
        <ele>1350</ele>
        <time>2016-11-21T16:06:27Z</time>
      </trkpt>
      <trkpt lat="44.23137" lon="5.75957">
        <ele>1355</ele>
        <time>2016-11-21T16:08:27Z</time>
      </trkpt>
      <trkpt lat="44.23201" lon="5.75878">
        <ele>1358</ele>
        <time>2016-11-21T16:10:27Z</time>
      </trkpt>
      <trkpt lat="44.23223" lon="5.75794">
        <ele>1358</ele>
        <time>2016-11-21T16:12:27Z</time>
      </trkpt>
      <trkpt lat="44.23211" lon="5.75485">
        <ele>1328</ele>
        <time>2016-11-21T16:14:27Z</time>
      </trkpt>
      <trkpt lat="44.23252" lon="5.75438">
        <ele>1340</ele>
        <time>2016-11-21T16:16:27Z</time>
      </trkpt>
      <trkpt lat="44.23255" lon="5.75339">
        <ele>1331</ele>
        <time>2016-11-21T16:18:27Z</time>
      </trkpt>
      <trkpt lat="44.23232" lon="5.75389">
        <ele>1328</ele>
        <time>2016-11-21T16:20:27Z</time>
      </trkpt>
      <trkpt lat="44.23187" lon="5.75376">
        <ele>1310</ele>
        <time>2016-11-21T16:22:27Z</time>
      </trkpt>
      <trkpt lat="44.23172" lon="5.75331">
        <ele>1300</ele>
        <time>2016-11-21T16:24:27Z</time>
      </trkpt>
      <trkpt lat="44.23146" lon="5.75425">
        <ele>1301</ele>
        <time>2016-11-21T16:26:27Z</time>
      </trkpt>
      <trkpt lat="44.2312" lon="5.75567">
        <ele>1300</ele>
        <time>2016-11-21T16:28:27Z</time>
      </trkpt>
      <trkpt lat="44.23066" lon="5.75513">
        <ele>1282</ele>
        <time>2016-11-21T16:30:27Z</time>
      </trkpt>
      <trkpt lat="44.22989" lon="5.75522">
        <ele>1279</ele>
        <time>2016-11-21T16:32:27Z</time>
      </trkpt>
      <trkpt lat="44.22897" lon="5.75475">
        <ele>1299</ele>
        <time>2016-11-21T16:34:27Z</time>
      </trkpt>
      <trkpt lat="44.22821" lon="5.75325">
        <ele>1314</ele>
        <time>2016-11-21T16:36:27Z</time>
      </trkpt>
      <trkpt lat="44.22688" lon="5.75141">
        <ele>1345</ele>
        <time>2016-11-21T16:38:27Z</time>
      </trkpt>
      <trkpt lat="44.22688" lon="5.75252">
        <ele>1364</ele>
        <time>2016-11-21T16:40:27Z</time>
      </trkpt>
      <trkpt lat="44.22578" lon="5.75098">
        <ele>1392</ele>
        <time>2016-11-21T16:42:27Z</time>
      </trkpt>
      <trkpt lat="44.22482" lon="5.74892">
        <ele>1424</ele>
        <time>2016-11-21T16:44:27Z</time>
      </trkpt>
      <trkpt lat="44.22479" lon="5.74647">
        <ele>1442</ele>
        <time>2016-11-21T16:46:27Z</time>
      </trkpt>
      <trkpt lat="44.22412" lon="5.74626">
        <ele>1467</ele>
        <time>2016-11-21T16:48:27Z</time>
      </trkpt>
      <trkpt lat="44.22332" lon="5.74694">
        <ele>1464</ele>
        <time>2016-11-21T16:50:27Z</time>
      </trkpt>
      <trkpt lat="44.22242" lon="5.74759">
        <ele>1447</ele>
        <time>2016-11-21T16:52:27Z</time>
      </trkpt>
      <trkpt lat="44.22233" lon="5.74917">
        <ele>1451</ele>
        <time>2016-11-21T16:54:27Z</time>
      </trkpt>
      <trkpt lat="44.22267" lon="5.75209">
        <ele>1450</ele>
        <time>2016-11-21T16:56:27Z</time>
      </trkpt>
      <trkpt lat="44.22215" lon="5.75256">
        <ele>1447</ele>
        <time>2016-11-21T16:58:27Z</time>
      </trkpt>
      <trkpt lat="44.22046" lon="5.75209">
        <ele>1431</ele>
        <time>2016-11-21T17:00:27Z</time>
      </trkpt>
      <trkpt lat="44.2191" lon="5.75222">
        <ele>1417</ele>
        <time>2016-11-21T17:02:27Z</time>
      </trkpt>
      <trkpt lat="44.21738" lon="5.75201">
        <ele>1392</ele>
        <time>2016-11-21T17:04:27Z</time>
      </trkpt>
      <trkpt lat="44.21667" lon="5.75252">
        <ele>1377</ele>
        <time>2016-11-21T17:06:27Z</time>
      </trkpt>
      <trkpt lat="44.21701" lon="5.75351">
        <ele>1377</ele>
        <time>2016-11-21T17:08:27Z</time>
      </trkpt>
      <trkpt lat="44.21603" lon="5.75398">
        <ele>1355</ele>
        <time>2016-11-21T17:10:27Z</time>
      </trkpt>
      <trkpt lat="44.21581" lon="5.75325">
        <ele>1347</ele>
        <time>2016-11-21T17:12:27Z</time>
      </trkpt>
      <trkpt lat="44.21517" lon="5.75274">
        <ele>1340</ele>
        <time>2016-11-21T17:14:27Z</time>
      </trkpt>
      <trkpt lat="44.2145" lon="5.75292">
        <ele>1321</ele>
        <time>2016-11-21T17:16:27Z</time>
      </trkpt>
      <trkpt lat="44.21411" lon="5.75234">
        <ele>1317</ele>
        <time>2016-11-21T17:18:27Z</time>
      </trkpt>
      <trkpt lat="44.21385" lon="5.75153">
        <ele>1315</ele>
        <time>2016-11-21T17:20:27Z</time>
      </trkpt>
      <trkpt lat="44.21322" lon="5.75168">
        <ele>1297</ele>
        <time>2016-11-21T17:22:27Z</time>
      </trkpt>
      <trkpt lat="44.21271" lon="5.75125">
        <ele>1290</ele>
        <time>2016-11-21T17:24:27Z</time>
      </trkpt>
      <trkpt lat="44.21345" lon="5.7503">
        <ele>1286</ele>
        <time>2016-11-21T17:26:27Z</time>
      </trkpt>
      <trkpt lat="44.21516" lon="5.74899">
        <ele>1283</ele>
        <time>2016-11-21T17:28:27Z</time>
      </trkpt>
      <trkpt lat="44.21644" lon="5.74803">
        <ele>1281</ele>
        <time>2016-11-21T17:30:27Z</time>
      </trkpt>
      <trkpt lat="44.21722" lon="5.74741">
        <ele>1278</ele>
        <time>2016-11-21T17:32:27Z</time>
      </trkpt>
      <trkpt lat="44.21807" lon="5.74683">
        <ele>1292</ele>
        <time>2016-11-21T17:34:27Z</time>
      </trkpt>
      <trkpt lat="44.21753" lon="5.7459">
        <ele>1283</ele>
        <time>2016-11-21T17:36:27Z</time>
      </trkpt>
      <trkpt lat="44.21679" lon="5.74502">
        <ele>1275</ele>
        <time>2016-11-21T17:38:27Z</time>
      </trkpt>
      <trkpt lat="44.21605" lon="5.74389">
        <ele>1266</ele>
        <time>2016-11-21T17:40:27Z</time>
      </trkpt>
      <trkpt lat="44.2159" lon="5.74247">
        <ele>1266</ele>
        <time>2016-11-21T17:42:27Z</time>
      </trkpt>
      <trkpt lat="44.21594" lon="5.74082">
        <ele>1251</ele>
        <time>2016-11-21T17:44:27Z</time>
      </trkpt>
      <trkpt lat="44.21624" lon="5.74033">
        <ele>1247</ele>
        <time>2016-11-21T17:46:27Z</time>
      </trkpt>
      <trkpt lat="44.21677" lon="5.74013">
        <ele>1255</ele>
        <time>2016-11-21T17:48:27Z</time>
      </trkpt>
      <trkpt lat="44.21705" lon="5.73887">
        <ele>1239</ele>
        <time>2016-11-21T17:50:27Z</time>
      </trkpt>
      <trkpt lat="44.21747" lon="5.73889">
        <ele>1249</ele>
        <time>2016-11-21T17:52:27Z</time>
      </trkpt>
      <trkpt lat="44.21705" lon="5.73706">
        <ele>1225</ele>
        <time>2016-11-21T17:54:27Z</time>
      </trkpt>
      <trkpt lat="44.21562" lon="5.73608">
        <ele>1187</ele>
        <time>2016-11-21T17:56:27Z</time>
      </trkpt>
      <trkpt lat="44.21534" lon="5.73548">
        <ele>1173</ele>
        <time>2016-11-21T17:58:27Z</time>
      </trkpt>
      <trkpt lat="44.21539" lon="5.7346">
        <ele>1162</ele>
        <time>2016-11-21T18:00:27Z</time>
      </trkpt>
      <trkpt lat="44.21521" lon="5.73415">
        <ele>1152</ele>
        <time>2016-11-21T18:02:27Z</time>
      </trkpt>
      <trkpt lat="44.21501" lon="5.73312">
        <ele>1137</ele>
        <time>2016-11-21T18:04:27Z</time>
      </trkpt>
      <trkpt lat="44.2151" lon="5.73213">
        <ele>1131</ele>
        <time>2016-11-21T18:06:27Z</time>
      </trkpt>
      <trkpt lat="44.21545" lon="5.73161">
        <ele>1137</ele>
        <time>2016-11-21T18:08:27Z</time>
      </trkpt>
      <trkpt lat="44.21542" lon="5.72992">
        <ele>1133</ele>
        <time>2016-11-21T18:10:27Z</time>
      </trkpt>
      <trkpt lat="44.21494" lon="5.72822">
        <ele>1104</ele>
        <time>2016-11-21T18:12:27Z</time>
      </trkpt>
      <trkpt lat="44.2149" lon="5.72786">
        <ele>1100</ele>
        <time>2016-11-21T18:14:27Z</time>
      </trkpt>
      <trkpt lat="44.2147" lon="5.72732">
        <ele>1085</ele>
        <time>2016-11-21T18:16:27Z</time>
      </trkpt>
      <trkpt lat="44.21468" lon="5.72481">
        <ele>1048</ele>
        <time>2016-11-21T18:18:27Z</time>
      </trkpt>
      <trkpt lat="44.21473" lon="5.72397">
        <ele>1033</ele>
        <time>2016-11-21T18:20:27Z</time>
      </trkpt>
      <trkpt lat="44.21497" lon="5.72359">
        <ele>1030</ele>
        <time>2016-11-21T18:22:27Z</time>
      </trkpt>
      <trkpt lat="44.21507" lon="5.72265">
        <ele>1009</ele>
        <time>2016-11-21T18:24:27Z</time>
      </trkpt>
      <trkpt lat="44.21547" lon="5.72154">
        <ele>994</ele>
        <time>2016-11-21T18:26:27Z</time>
      </trkpt>
    </trkseg>
  </trk>
</gpx>